Gokceada, Turkey

7:58 PM +03 on February 26, 2017 (GMT +0300)
Limnos | | Change Station

Elev 13 ft 39.92 °N, 25.23 °E | Updated 8 minutes ago

Partly Cloudy
Partly Cloudy
50 °F
Feels Like 50 °F
N
8
Wind Variable Wind from North

Today
High -- | Low -- °F
--% Chance of Precip.
Yesterday
High -- | Low -- °F
Precip. -- in
Pressure 30.18 in
Visibility 6.2 miles
Clouds Few 1000 ft
Scattered Clouds 2000 ft
Dew Point 46 °F
Humidity 87%
Rainfall 0.00 in
Snow Depth Not available.
7:54 AM 7:04 PM
New Moon, 0% visible
METAR LGLM 261650Z 01007KT 9999 FEW010 SCT020 10/08 Q1022
Pressure 30.18 in
Visibility 6.2 miles
Clouds Few 1000 ft
Scattered Clouds 2000 ft
Dew Point 46 °F
Humidity 87%
Rainfall 0.00 in
Snow Depth Not available.
7:54 AM 7:04 PM
New Moon, 0% visible
METAR LGLM 261650Z 01007KT 9999 FEW010 SCT020 10/08 Q1022

Get Your Daily Forecast Email!

Thanks for signing up!

Be on the lookout for a verification email in your inbox.

You'll start receiving the daily forecast at 8 AM.

×

10-Day Weather Forecast

×

Almanac

Astronomy

Feb. 26, 2017 Rise Set
Actual Time
Civil Twilight
Nautical Twilight
Astronomical Twilight
Moon
Length of Visible Light
Length of Day
Tomorrow will be .
, % of the Moon is Illuminated

Today's Extremes

Country Highs Country Lows

Community

WunderPhotos

Upload Photos

1,962,540 photos uploaded!

WunderBlog® & News

Nearby

Air Quality

  Air Quality AQ Index Pollutant
Not available.

Snow Depth

Station Depth Elevation

Earthquake Activity

City Distance Mag. Time & Date
Minimum magnitude displayed is 2.5.

Coastal Water Temperatures

Place Temperature

Stations

Nearby Weather Stations

Station Location Temp. Windchill Dew Point Humidity Wind Precip. Elev Updated Type